Terminal Aerodrome Forecast
Issued by NWS

Home | Current Version | Previous Version | Text Only | Print | Product List | Glossary Off
Versions: 1 2 3 4 5 6 7 8 9 10 11 12 13 14 15 16

378
FTUS43 KICT 280522
TAFCNU
TAF
KCNU 280522Z 2806/2906 11010KT P6SM VCTS SCT030 OVC060CB
      TEMPO 2806/2810 5SM TSRA OVC030CB
     FM281000 12010KT 6SM BR VCSH OVC022
     FM281200 13007KT 5SM BR OVC012
     FM281600 15007KT P6SM OVC020
     FM282100 13007KT P6SM BKN030
     FM290200 05008KT P6SM VCSH OVC030=

USA.gov is the U.S. government's official web portal to all federal, state and local government web resources and services.